sensor_id;sensor_type;location;lat;lon;timestamp;temperature;humidity
23143;DHT22;11740;51.168;4.112;2023-02-15T00:01:35;5.00;1.00
23143;DHT22;11740;51.168;4.112;2023-02-15T00:04:06;5.00;1.00
23143;DHT22;11740;51.168;4.112;2023-02-15T00:06:33;4.90;1.00
23143;DHT22;11740;51.168;4.112;2023-02-15T00:09:00;4.90;1.00
23143;DHT22;11740;51.168;4.112;2023-02-15T00:11:29;4.90;1.00
23143;DHT22;11740;51.168;4.112;2023-02-15T00:14:17;4.80;1.00
23143;DHT22;11740;51.168;4.112;2023-02-15T00:16:48;4.70;1.10
23143;DHT22;11740;51.168;4.112;2023-02-15T00:19:17;4.60;28.50
23143;DHT22;11740;51.168;4.112;2023-02-15T00:21:45;4.60;34.70
23143;DHT22;11740;51.168;4.112;2023-02-15T00:24:13;4.60;17.60
23143;DHT22;11740;51.168;4.112;2023-02-15T00:26:41;4.50;1.00
23143;DHT22;11740;51.168;4.112;2023-02-15T00:29:09;4.50;1.00
23143;DHT22;11740;51.168;4.112;2023-02-15T00:31:38;4.50;1.00
23143;DHT22;11740;51.168;4.112;2023-02-15T00:34:06;4.50;1.00
23143;DHT22;11740;51.168;4.112;2023-02-15T00:36:36;4.40;1.00
23143;DHT22;11740;51.168;4.112;2023-02-15T00:39:03;4.40;1.00
23143;DHT22;11740;51.168;4.112;2023-02-15T00:41:31;4.30;2.50
23143;DHT22;11740;51.168;4.112;2023-02-15T00:43:58;4.20;1.00
23143;DHT22;11740;51.168;4.112;2023-02-15T00:46:25;4.20;1.00
23143;DHT22;11740;51.168;4.112;2023-02-15T00:48:52;4.20;1.00
23143;DHT22;11740;51.168;4.112;2023-02-15T00:51:19;4.20;1.00
23143;DHT22;11740;51.168;4.112;2023-02-15T00:53:47;4.10;1.00
23143;DHT22;11740;51.168;4.112;2023-02-15T00:56:14;4.10;1.00
23143;DHT22;11740;51.168;4.112;2023-02-15T00:58:41;4.00;44.10
23143;DHT22;11740;51.168;4.112;2023-02-15T01:01:09;4.00;10.80
23143;DHT22;11740;51.168;4.112;2023-02-15T01:03:38;4.00;1.10
23143;DHT22;11740;51.168;4.112;2023-02-15T01:06:05;3.90;1.70
23143;DHT22;11740;51.168;4.112;2023-02-15T01:08:31;3.80;60.00
23143;DHT22;11740;51.168;4.112;2023-02-15T01:11:02;3.80;99.90
23143;DHT22;11740;51.168;4.112;2023-02-15T01:13:33;3.70;99.90
23143;DHT22;11740;51.168;4.112;2023-02-15T01:16:00;3.70;99.30
23143;DHT22;11740;51.168;4.112;2023-02-15T01:18:29;3.60;99.90
23143;DHT22;11740;51.168;4.112;2023-02-15T01:20:56;3.70;99.90
23143;DHT22;11740;51.168;4.112;2023-02-15T01:23:23;3.60;75.70
23143;DHT22;11740;51.168;4.112;2023-02-15T01:25:50;3.60;39.90
23143;DHT22;11740;51.168;4.112;2023-02-15T01:28:17;3.60;70.60
23143;DHT22;11740;51.168;4.112;2023-02-15T01:30:44;3.50;99.90
23143;DHT22;11740;51.168;4.112;2023-02-15T01:33:11;3.50;99.90
23143;DHT22;11740;51.168;4.112;2023-02-15T01:35:45;3.40;99.90
23143;DHT22;11740;51.168;4.112;2023-02-15T01:38:13;3.40;99.90
23143;DHT22;11740;51.168;4.112;2023-02-15T01:40:40;3.40;87.30
23143;DHT22;11740;51.168;4.112;2023-02-15T01:43:10;3.30;80.80
23143;DHT22;11740;51.168;4.112;2023-02-15T01:45:38;3.30;81.80
23143;DHT22;11740;51.168;4.112;2023-02-15T01:48:08;3.30;65.50
23143;DHT22;11740;51.168;4.112;2023-02-15T01:50:44;3.30;71.40
23143;DHT22;11740;51.168;4.112;2023-02-15T01:56:02;3.20;91.50
23143;DHT22;11740;51.168;4.112;2023-02-15T01:58:32;3.20;99.90
23143;DHT22;11740;51.168;4.112;2023-02-15T02:01:00;3.10;69.50
23143;DHT22;11740;51.168;4.112;2023-02-15T02:06:31;3.00;99.90
23143;DHT22;11740;51.168;4.112;2023-02-15T02:08:59;3.00;99.90
23143;DHT22;11740;51.168;4.112;2023-02-15T02:11:26;2.90;99.90
23143;DHT22;11740;51.168;4.112;2023-02-15T02:13:53;2.90;99.90
23143;DHT22;11740;51.168;4.112;2023-02-15T02:28:28;2.80;49.60
23143;DHT22;11740;51.168;4.112;2023-02-15T02:44:17;2.50;99.90
23143;DHT22;11740;51.168;4.112;2023-02-15T02:46:59;2.40;99.90
23143;DHT22;11740;51.168;4.112;2023-02-15T02:49:38;2.40;99.90
23143;DHT22;11740;51.168;4.112;2023-02-15T02:52:32;2.40;99.90
23143;DHT22;11740;51.168;4.112;2023-02-15T03:00:28;2.30;99.90
23143;DHT22;11740;51.168;4.112;2023-02-15T03:03:00;2.20;99.90
23143;DHT22;11740;51.168;4.112;2023-02-15T03:05:33;2.10;99.90
23143;DHT22;11740;51.168;4.112;2023-02-15T03:08:01;2.10;99.90
23143;DHT22;11740;51.168;4.112;2023-02-15T03:10:32;2.10;99.90
23143;DHT22;11740;51.168;4.112;2023-02-15T03:13:01;2.10;99.90
23143;DHT22;11740;51.168;4.112;2023-02-15T03:15:32;2.10;99.90
23143;DHT22;11740;51.168;4.112;2023-02-15T03:18:22;2.10;99.90
23143;DHT22;11740;51.168;4.112;2023-02-15T03:20:50;2.00;99.90
23143;DHT22;11740;51.168;4.112;2023-02-15T03:23:20;2.00;99.90
23143;DHT22;11740;51.168;4.112;2023-02-15T03:25:55;2.00;99.90
23143;DHT22;11740;51.168;4.112;2023-02-15T03:28:25;1.90;99.90
23143;DHT22;11740;51.168;4.112;2023-02-15T03:30:56;1.90;99.90
23143;DHT22;11740;51.168;4.112;2023-02-15T03:33:26;1.90;99.90
23143;DHT22;11740;51.168;4.112;2023-02-15T03:38:29;1.80;1.00
23143;DHT22;11740;51.168;4.112;2023-02-15T03:41:07;1.80;1.00
23143;DHT22;11740;51.168;4.112;2023-02-15T03:43:39;1.80;99.90
23143;DHT22;11740;51.168;4.112;2023-02-15T03:46:09;1.80;99.90
23143;DHT22;11740;51.168;4.112;2023-02-15T03:48:40;1.70;1.00
23143;DHT22;11740;51.168;4.112;2023-02-15T03:51:12;1.70;1.00
23143;DHT22;11740;51.168;4.112;2023-02-15T03:56:39;1.60;1.00
23143;DHT22;11740;51.168;4.112;2023-02-15T03:59:07;1.60;1.00
23143;DHT22;11740;51.168;4.112;2023-02-15T04:01:54;1.60;1.00
23143;DHT22;11740;51.168;4.112;2023-02-15T04:04:33;1.60;99.90
23143;DHT22;11740;51.168;4.112;2023-02-15T04:07:05;1.60;1.00
23143;DHT22;11740;51.168;4.112;2023-02-15T04:09:33;1.50;1.00
23143;DHT22;11740;51.168;4.112;2023-02-15T04:12:19;1.50;1.00
23143;DHT22;11740;51.168;4.112;2023-02-15T04:14:46;1.50;1.00
23143;DHT22;11740;51.168;4.112;2023-02-15T04:17:31;1.40;1.00
23143;DHT22;11740;51.168;4.112;2023-02-15T04:19:58;1.40;1.00
23143;DHT22;11740;51.168;4.112;2023-02-15T04:22:43;1.40;4.40
23143;DHT22;11740;51.168;4.112;2023-02-15T04:25:29;1.40;99.90
23143;DHT22;11740;51.168;4.112;2023-02-15T04:27:56;1.40;99.90
23143;DHT22;11740;51.168;4.112;2023-02-15T04:30:23;1.30;99.90
23143;DHT22;11740;51.168;4.112;2023-02-15T04:32:51;1.30;99.90
23143;DHT22;11740;51.168;4.112;2023-02-15T04:35:20;1.30;99.90
23143;DHT22;11740;51.168;4.112;2023-02-15T04:37:47;1.20;99.90
23143;DHT22;11740;51.168;4.112;2023-02-15T04:40:14;1.30;99.90
23143;DHT22;11740;51.168;4.112;2023-02-15T04:42:46;1.20;99.90
23143;DHT22;11740;51.168;4.112;2023-02-15T04:45:14;1.20;99.90
23143;DHT22;11740;51.168;4.112;2023-02-15T04:47:41;1.20;99.90
23143;DHT22;11740;51.168;4.112;2023-02-15T04:50:08;1.20;37.40
23143;DHT22;11740;51.168;4.112;2023-02-15T04:52:35;1.20;32.20
23143;DHT22;11740;51.168;4.112;2023-02-15T04:55:02;1.20;70.60
23143;DHT22;11740;51.168;4.112;2023-02-15T04:57:29;1.10;99.90
23143;DHT22;11740;51.168;4.112;2023-02-15T04:59:56;1.10;1.00
23143;DHT22;11740;51.168;4.112;2023-02-15T05:02:25;1.10;99.90
23143;DHT22;11740;51.168;4.112;2023-02-15T05:04:52;1.00;99.90
23143;DHT22;11740;51.168;4.112;2023-02-15T05:07:19;1.00;99.90
23143;DHT22;11740;51.168;4.112;2023-02-15T05:09:47;1.00;99.90
23143;DHT22;11740;51.168;4.112;2023-02-15T05:12:14;1.00;22.80
23143;DHT22;11740;51.168;4.112;2023-02-15T05:14:41;0.90;99.90
23143;DHT22;11740;51.168;4.112;2023-02-15T05:17:08;0.90;99.90
23143;DHT22;11740;51.168;4.112;2023-02-15T05:19:34;0.90;1.00
23143;DHT22;11740;51.168;4.112;2023-02-15T05:22:01;0.90;1.00
23143;DHT22;11740;51.168;4.112;2023-02-15T05:24:28;1.00;99.90
23143;DHT22;11740;51.168;4.112;2023-02-15T05:27:13;0.90;1.00
23143;DHT22;11740;51.168;4.112;2023-02-15T05:29:59;0.90;1.00
23143;DHT22;11740;51.168;4.112;2023-02-15T05:32:26;0.90;1.00
23143;DHT22;11740;51.168;4.112;2023-02-15T05:34:53;0.90;1.00
23143;DHT22;11740;51.168;4.112;2023-02-15T05:37:20;0.80;1.00
23143;DHT22;11740;51.168;4.112;2023-02-15T05:39:46;0.90;1.00
23143;DHT22;11740;51.168;4.112;2023-02-15T05:42:13;0.90;1.00
23143;DHT22;11740;51.168;4.112;2023-02-15T05:44:40;0.80;1.00
23143;DHT22;11740;51.168;4.112;2023-02-15T05:47:07;0.80;1.00
23143;DHT22;11740;51.168;4.112;2023-02-15T05:49:34;0.80;1.00
23143;DHT22;11740;51.168;4.112;2023-02-15T05:52:01;0.70;99.90
23143;DHT22;11740;51.168;4.112;2023-02-15T05:54:28;0.70;99.90
23143;DHT22;11740;51.168;4.112;2023-02-15T05:56:55;0.70;28.80
23143;DHT22;11740;51.168;4.112;2023-02-15T05:59:21;0.70;80.70
23143;DHT22;11740;51.168;4.112;2023-02-15T06:01:48;0.60;17.00
23143;DHT22;11740;51.168;4.112;2023-02-15T06:04:15;0.60;99.90
23143;DHT22;11740;51.168;4.112;2023-02-15T06:06:43;0.60;99.90
23143;DHT22;11740;51.168;4.112;2023-02-15T06:09:10;0.60;99.90
23143;DHT22;11740;51.168;4.112;2023-02-15T06:11:39;0.60;99.90
23143;DHT22;11740;51.168;4.112;2023-02-15T06:14:06;0.60;99.90
23143;DHT22;11740;51.168;4.112;2023-02-15T06:16:33;0.60;99.90
23143;DHT22;11740;51.168;4.112;2023-02-15T06:19:00;0.60;99.90
23143;DHT22;11740;51.168;4.112;2023-02-15T06:21:28;0.50;99.90
23143;DHT22;11740;51.168;4.112;2023-02-15T06:23:56;0.50;99.90
23143;DHT22;11740;51.168;4.112;2023-02-15T06:26:23;0.50;28.70
23143;DHT22;11740;51.168;4.112;2023-02-15T06:28:50;0.50;99.90
23143;DHT22;11740;51.168;4.112;2023-02-15T06:31:17;0.50;99.90
23143;DHT22;11740;51.168;4.112;2023-02-15T06:33:44;0.50;1.00
23143;DHT22;11740;51.168;4.112;2023-02-15T06:36:11;0.50;1.00
23143;DHT22;11740;51.168;4.112;2023-02-15T06:38:39;0.50;99.90
23143;DHT22;11740;51.168;4.112;2023-02-15T06:41:05;0.60;57.10
23143;DHT22;11740;51.168;4.112;2023-02-15T06:43:32;0.60;99.90
23143;DHT22;11740;51.168;4.112;2023-02-15T06:46:00;0.70;1.00
23143;DHT22;11740;51.168;4.112;2023-02-15T06:48:28;0.60;99.90
23143;DHT22;11740;51.168;4.112;2023-02-15T06:50:54;0.60;99.90
23143;DHT22;11740;51.168;4.112;2023-02-15T06:53:21;0.60;99.90
23143;DHT22;11740;51.168;4.112;2023-02-15T06:55:48;0.60;99.90
23143;DHT22;11740;51.168;4.112;2023-02-15T06:58:15;0.70;1.00
23143;DHT22;11740;51.168;4.112;2023-02-15T07:00:42;0.70;1.00
23143;DHT22;11740;51.168;4.112;2023-02-15T07:03:09;0.60;1.00
23143;DHT22;11740;51.168;4.112;2023-02-15T07:05:36;0.60;1.00
23143;DHT22;11740;51.168;4.112;2023-02-15T07:08:02;0.70;1.00
23143;DHT22;11740;51.168;4.112;2023-02-15T07:10:29;0.60;1.00
23143;DHT22;11740;51.168;4.112;2023-02-15T07:12:56;0.70;99.90
23143;DHT22;11740;51.168;4.112;2023-02-15T07:15:23;0.70;99.90
23143;DHT22;11740;51.168;4.112;2023-02-15T07:17:50;0.80;99.90
23143;DHT22;11740;51.168;4.112;2023-02-15T07:20:21;0.80;99.90
23143;DHT22;11740;51.168;4.112;2023-02-15T07:22:49;0.70;81.20
23143;DHT22;11740;51.168;4.112;2023-02-15T07:25:16;0.70;99.90
23143;DHT22;11740;51.168;4.112;2023-02-15T07:27:43;0.80;99.90
23143;DHT22;11740;51.168;4.112;2023-02-15T07:30:12;0.80;99.90
23143;DHT22;11740;51.168;4.112;2023-02-15T07:32:41;0.90;1.00
23143;DHT22;11740;51.168;4.112;2023-02-15T07:35:30;0.90;1.00
23143;DHT22;11740;51.168;4.112;2023-02-15T07:37:57;1.00;1.00
23143;DHT22;11740;51.168;4.112;2023-02-15T07:40:24;1.00;1.00
23143;DHT22;11740;51.168;4.112;2023-02-15T07:42:51;1.00;1.00
23143;DHT22;11740;51.168;4.112;2023-02-15T07:45:20;1.10;56.40
23143;DHT22;11740;51.168;4.112;2023-02-15T07:47:47;1.10;76.80
23143;DHT22;11740;51.168;4.112;2023-02-15T07:50:14;1.10;1.00
23143;DHT22;11740;51.168;4.112;2023-02-15T07:52:41;1.00;1.00
23143;DHT22;11740;51.168;4.112;2023-02-15T07:55:08;1.00;1.00
23143;DHT22;11740;51.168;4.112;2023-02-15T07:57:35;1.00;1.00
23143;DHT22;11740;51.168;4.112;2023-02-15T08:00:02;1.00;1.00
23143;DHT22;11740;51.168;4.112;2023-02-15T08:02:30;1.00;1.00
23143;DHT22;11740;51.168;4.112;2023-02-15T08:04:57;1.10;1.00
23143;DHT22;11740;51.168;4.112;2023-02-15T08:07:23;1.10;1.00
23143;DHT22;11740;51.168;4.112;2023-02-15T08:09:50;1.10;1.00
23143;DHT22;11740;51.168;4.112;2023-02-15T08:12:17;1.20;1.00
23143;DHT22;11740;51.168;4.112;2023-02-15T08:14:44;1.20;1.00
23143;DHT22;11740;51.168;4.112;2023-02-15T08:17:11;1.10;1.00
23143;DHT22;11740;51.168;4.112;2023-02-15T08:19:37;1.20;1.00
23143;DHT22;11740;51.168;4.112;2023-02-15T08:22:05;1.20;1.00
23143;DHT22;11740;51.168;4.112;2023-02-15T08:24:34;1.10;1.00
23143;DHT22;11740;51.168;4.112;2023-02-15T08:27:06;1.20;1.00
23143;DHT22;11740;51.168;4.112;2023-02-15T08:29:34;1.30;1.00
23143;DHT22;11740;51.168;4.112;2023-02-15T08:32:03;1.30;1.00
23143;DHT22;11740;51.168;4.112;2023-02-15T08:34:36;1.30;1.00
23143;DHT22;11740;51.168;4.112;2023-02-15T08:37:04;1.40;1.00
23143;DHT22;11740;51.168;4.112;2023-02-15T08:39:32;1.40;1.00
23143;DHT22;11740;51.168;4.112;2023-02-15T08:42:00;1.50;1.00
23143;DHT22;11740;51.168;4.112;2023-02-15T08:44:27;1.60;1.00
23143;DHT22;11740;51.168;4.112;2023-02-15T08:46:54;1.60;1.00
23143;DHT22;11740;51.168;4.112;2023-02-15T08:49:21;1.60;1.00
23143;DHT22;11740;51.168;4.112;2023-02-15T08:51:48;1.80;1.00
23143;DHT22;11740;51.168;4.112;2023-02-15T08:54:19;1.90;1.00
23143;DHT22;11740;51.168;4.112;2023-02-15T08:56:47;2.00;1.00
23143;DHT22;11740;51.168;4.112;2023-02-15T08:59:18;2.00;1.00
23143;DHT22;11740;51.168;4.112;2023-02-15T09:01:48;2.10;1.00
23143;DHT22;11740;51.168;4.112;2023-02-15T09:04:16;2.20;1.00
23143;DHT22;11740;51.168;4.112;2023-02-15T09:06:44;2.30;1.00
23143;DHT22;11740;51.168;4.112;2023-02-15T09:09:14;2.50;1.00
23143;DHT22;11740;51.168;4.112;2023-02-15T09:11:42;2.60;1.00
23143;DHT22;11740;51.168;4.112;2023-02-15T09:14:11;2.60;1.00
23143;DHT22;11740;51.168;4.112;2023-02-15T09:16:43;2.70;1.00
23143;DHT22;11740;51.168;4.112;2023-02-15T09:19:12;2.70;1.00
23143;DHT22;11740;51.168;4.112;2023-02-15T09:21:39;2.90;1.00
23143;DHT22;11740;51.168;4.112;2023-02-15T09:24:12;2.80;99.90
23143;DHT22;11740;51.168;4.112;2023-02-15T09:26:41;2.90;99.90
23143;DHT22;11740;51.168;4.112;2023-02-15T09:29:11;2.90;99.90
23143;DHT22;11740;51.168;4.112;2023-02-15T09:31:40;3.00;99.90
23143;DHT22;11740;51.168;4.112;2023-02-15T09:34:11;3.10;99.90
23143;DHT22;11740;51.168;4.112;2023-02-15T09:36:39;3.20;99.90
23143;DHT22;11740;51.168;4.112;2023-02-15T09:39:08;3.30;99.90
23143;DHT22;11740;51.168;4.112;2023-02-15T09:56:19;3.90;99.90
23143;DHT22;11740;51.168;4.112;2023-02-15T10:12:31;4.30;99.90
23143;DHT22;11740;51.168;4.112;2023-02-15T10:15:19;4.40;99.90
23143;DHT22;11740;51.168;4.112;2023-02-15T10:28:55;4.80;99.90
23143;DHT22;11740;51.168;4.112;2023-02-15T10:31:27;4.90;5.80
23143;DHT22;11740;51.168;4.112;2023-02-15T10:56:00;5.70;1.00
23143;DHT22;11740;51.168;4.112;2023-02-15T11:06:54;6.40;99.90
23143;DHT22;11740;51.168;4.112;2023-02-15T11:09:25;6.50;99.90
23143;DHT22;11740;51.168;4.112;2023-02-15T11:11:56;6.60;99.90
23143;DHT22;11740;51.168;4.112;2023-02-15T11:14:37;6.60;99.90
23143;DHT22;11740;51.168;4.112;2023-02-15T11:17:14;6.70;30.40
23143;DHT22;11740;51.168;4.112;2023-02-15T11:20:30;6.80;1.00
23143;DHT22;11740;51.168;4.112;2023-02-15T11:22:51;6.90;1.00
23143;DHT22;11740;51.168;4.112;2023-02-15T11:25:41;7.00;1.00
23143;DHT22;11740;51.168;4.112;2023-02-15T11:28:09;7.10;99.90
23143;DHT22;11740;51.168;4.112;2023-02-15T11:30:50;7.30;1.00
23143;DHT22;11740;51.168;4.112;2023-02-15T11:33:23;7.50;99.90
23143;DHT22;11740;51.168;4.112;2023-02-15T11:38:40;7.50;99.90
23143;DHT22;11740;51.168;4.112;2023-02-15T11:41:11;7.70;99.90
23143;DHT22;11740;51.168;4.112;2023-02-15T11:43:45;7.70;1.00
23143;DHT22;11740;51.168;4.112;2023-02-15T11:46:17;7.70;99.90
23143;DHT22;11740;51.168;4.112;2023-02-15T11:48:46;7.80;99.90
23143;DHT22;11740;51.168;4.112;2023-02-15T11:51:17;7.90;99.90
23143;DHT22;11740;51.168;4.112;2023-02-15T11:53:49;8.10;3.60
23143;DHT22;11740;51.168;4.112;2023-02-15T11:56:17;8.20;1.00
23143;DHT22;11740;51.168;4.112;2023-02-15T12:06:44;8.40;1.00
23143;DHT22;11740;51.168;4.112;2023-02-15T12:09:20;8.50;99.90
23143;DHT22;11740;51.168;4.112;2023-02-15T12:14:54;8.70;1.00
23143;DHT22;11740;51.168;4.112;2023-02-15T12:17:26;8.90;1.00
23143;DHT22;11740;51.168;4.112;2023-02-15T12:19:55;9.00;99.90
23143;DHT22;11740;51.168;4.112;2023-02-15T12:24:53;9.10;1.00
23143;DHT22;11740;51.168;4.112;2023-02-15T12:27:26;9.20;1.00
23143;DHT22;11740;51.168;4.112;2023-02-15T12:33:46;9.40;99.90
23143;DHT22;11740;51.168;4.112;2023-02-15T12:36:20;9.60;99.90
23143;DHT22;11740;51.168;4.112;2023-02-15T12:39:02;9.70;99.90
23143;DHT22;11740;51.168;4.112;2023-02-15T12:41:32;9.80;99.90
23143;DHT22;11740;51.168;4.112;2023-02-15T12:46:32;9.90;99.90
23143;DHT22;11740;51.168;4.112;2023-02-15T12:49:18;10.00;99.90
23143;DHT22;11740;51.168;4.112;2023-02-15T12:51:50;10.00;99.90
23143;DHT22;11740;51.168;4.112;2023-02-15T12:56:49;10.30;99.90
23143;DHT22;11740;51.168;4.112;2023-02-15T12:59:16;10.20;99.90
23143;DHT22;11740;51.168;4.112;2023-02-15T13:01:48;10.30;99.90
23143;DHT22;11740;51.168;4.112;2023-02-15T13:04:27;10.40;99.90
23143;DHT22;11740;51.168;4.112;2023-02-15T13:06:57;10.40;99.90
23143;DHT22;11740;51.168;4.112;2023-02-15T13:14:38;10.60;99.90
23143;DHT22;11740;51.168;4.112;2023-02-15T13:17:11;10.70;99.90
23143;DHT22;11740;51.168;4.112;2023-02-15T13:19:42;10.70;99.90
23143;DHT22;11740;51.168;4.112;2023-02-15T13:22:19;10.80;99.90
23143;DHT22;11740;51.168;4.112;2023-02-15T13:24:50;10.90;99.90
23143;DHT22;11740;51.168;4.112;2023-02-15T13:27:22;10.90;99.90
23143;DHT22;11740;51.168;4.112;2023-02-15T13:29:51;11.00;99.90
23143;DHT22;11740;51.168;4.112;2023-02-15T13:32:33;11.10;62.40
23143;DHT22;11740;51.168;4.112;2023-02-15T13:35:03;11.30;62.70
23143;DHT22;11740;51.168;4.112;2023-02-15T13:37:42;11.40;9.70
23143;DHT22;11740;51.168;4.112;2023-02-15T13:40:24;11.50;45.00
23143;DHT22;11740;51.168;4.112;2023-02-15T13:45:48;11.70;1.00
23143;DHT22;11740;51.168;4.112;2023-02-15T14:22:31;13.20;1.00
23143;DHT22;11740;51.168;4.112;2023-02-15T14:30:44;13.50;1.00
23143;DHT22;11740;51.168;4.112;2023-02-15T14:35:41;13.80;1.00
23143;DHT22;11740;51.168;4.112;2023-02-15T14:46:19;14.20;1.00
23143;DHT22;11740;51.168;4.112;2023-02-15T14:48:49;14.10;1.00
23143;DHT22;11740;51.168;4.112;2023-02-15T14:54:09;14.10;1.00
23143;DHT22;11740;51.168;4.112;2023-02-15T14:56:37;14.20;1.00
23143;DHT22;11740;51.168;4.112;2023-02-15T14:59:20;14.20;1.00
23143;DHT22;11740;51.168;4.112;2023-02-15T15:01:51;14.20;1.00
23143;DHT22;11740;51.168;4.112;2023-02-15T15:04:41;14.30;1.00
23143;DHT22;11740;51.168;4.112;2023-02-15T15:09:42;14.20;1.00
23143;DHT22;11740;51.168;4.112;2023-02-15T15:14:43;14.10;1.00
23143;DHT22;11740;51.168;4.112;2023-02-15T15:17:11;13.90;99.90
23143;DHT22;11740;51.168;4.112;2023-02-15T15:22:21;13.80;1.00
23143;DHT22;11740;51.168;4.112;2023-02-15T15:24:59;13.80;1.00
23143;DHT22;11740;51.168;4.112;2023-02-15T15:27:39;13.70;99.90
23143;DHT22;11740;51.168;4.112;2023-02-15T15:43:47;13.60;99.90
23143;DHT22;11740;51.168;4.112;2023-02-15T15:48:53;13.50;99.90
23143;DHT22;11740;51.168;4.112;2023-02-15T15:51:21;13.40;99.90
23143;DHT22;11740;51.168;4.112;2023-02-15T15:53:54;13.30;99.90
23143;DHT22;11740;51.168;4.112;2023-02-15T15:56:23;13.40;99.90
23143;DHT22;11740;51.168;4.112;2023-02-15T15:58:56;13.30;99.90
23143;DHT22;11740;51.168;4.112;2023-02-15T16:01:29;13.20;99.90
23143;DHT22;11740;51.168;4.112;2023-02-15T16:03:58;13.20;99.90
23143;DHT22;11740;51.168;4.112;2023-02-15T16:06:26;13.20;99.90
23143;DHT22;11740;51.168;4.112;2023-02-15T16:08:55;13.20;99.90
23143;DHT22;11740;51.168;4.112;2023-02-15T16:11:26;13.20;99.90
23143;DHT22;11740;51.168;4.112;2023-02-15T16:13:55;13.10;99.90
23143;DHT22;11740;51.168;4.112;2023-02-15T16:16:24;13.10;99.90
23143;DHT22;11740;51.168;4.112;2023-02-15T16:18:57;13.20;99.90
23143;DHT22;11740;51.168;4.112;2023-02-15T16:21:27;13.20;99.90
23143;DHT22;11740;51.168;4.112;2023-02-15T16:29:28;13.30;1.00
23143;DHT22;11740;51.168;4.112;2023-02-15T16:32:00;13.00;1.00
23143;DHT22;11740;51.168;4.112;2023-02-15T16:34:32;12.90;1.00
23143;DHT22;11740;51.168;4.112;2023-02-15T16:37:12;12.90;1.00
23143;DHT22;11740;51.168;4.112;2023-02-15T16:39:43;12.90;1.00
23143;DHT22;11740;51.168;4.112;2023-02-15T16:42:11;12.90;1.00
23143;DHT22;11740;51.168;4.112;2023-02-15T16:44:39;12.90;1.00
23143;DHT22;11740;51.168;4.112;2023-02-15T16:47:12;12.70;1.00
23143;DHT22;11740;51.168;4.112;2023-02-15T16:49:43;12.60;1.00
23143;DHT22;11740;51.168;4.112;2023-02-15T16:52:18;12.60;1.00
23143;DHT22;11740;51.168;4.112;2023-02-15T16:54:49;12.50;1.00
23143;DHT22;11740;51.168;4.112;2023-02-15T16:57:19;12.50;1.00
23143;DHT22;11740;51.168;4.112;2023-02-15T16:59:49;12.50;1.00
23143;DHT22;11740;51.168;4.112;2023-02-15T17:02:18;12.30;1.00
23143;DHT22;11740;51.168;4.112;2023-02-15T17:10:46;12.10;1.00
23143;DHT22;11740;51.168;4.112;2023-02-15T17:13:29;12.00;1.00
23143;DHT22;11740;51.168;4.112;2023-02-15T17:18:27;11.80;1.00
23143;DHT22;11740;51.168;4.112;2023-02-15T17:20:57;11.60;1.00
23143;DHT22;11740;51.168;4.112;2023-02-15T17:23:33;11.70;1.00
23143;DHT22;11740;51.168;4.112;2023-02-15T17:26:10;11.60;1.00
23143;DHT22;11740;51.168;4.112;2023-02-15T17:28:45;11.50;1.00
23143;DHT22;11740;51.168;4.112;2023-02-15T17:31:14;11.40;1.00
23143;DHT22;11740;51.168;4.112;2023-02-15T17:33:44;11.40;1.00
23143;DHT22;11740;51.168;4.112;2023-02-15T17:36:11;11.40;1.00
23143;DHT22;11740;51.168;4.112;2023-02-15T17:41:29;11.40;1.00
23143;DHT22;11740;51.168;4.112;2023-02-15T17:43:58;11.30;1.00
23143;DHT22;11740;51.168;4.112;2023-02-15T17:46:26;11.30;1.00
23143;DHT22;11740;51.168;4.112;2023-02-15T17:48:58;11.30;1.00
23143;DHT22;11740;51.168;4.112;2023-02-15T17:51:25;11.20;1.00
23143;DHT22;11740;51.168;4.112;2023-02-15T17:53:52;11.20;1.00
23143;DHT22;11740;51.168;4.112;2023-02-15T17:56:38;11.20;1.00
23143;DHT22;11740;51.168;4.112;2023-02-15T17:59:05;11.00;1.00
23143;DHT22;11740;51.168;4.112;2023-02-15T18:01:40;11.00;1.00
23143;DHT22;11740;51.168;4.112;2023-02-15T18:04:31;10.90;1.00
23143;DHT22;11740;51.168;4.112;2023-02-15T18:07:17;10.80;1.00
23143;DHT22;11740;51.168;4.112;2023-02-15T18:10:11;10.80;1.00
23143;DHT22;11740;51.168;4.112;2023-02-15T18:12:58;10.80;1.00
23143;DHT22;11740;51.168;4.112;2023-02-15T18:15:25;10.70;1.00
23143;DHT22;11740;51.168;4.112;2023-02-15T18:17:52;10.70;1.00
23143;DHT22;11740;51.168;4.112;2023-02-15T18:20:23;10.70;1.00
23143;DHT22;11740;51.168;4.112;2023-02-15T18:22:54;10.60;1.00
23143;DHT22;11740;51.168;4.112;2023-02-15T18:25:21;10.60;1.00
23143;DHT22;11740;51.168;4.112;2023-02-15T18:27:51;10.40;1.00
23143;DHT22;11740;51.168;4.112;2023-02-15T18:30:21;10.40;1.00
23143;DHT22;11740;51.168;4.112;2023-02-15T18:32:49;10.40;1.00
23143;DHT22;11740;51.168;4.112;2023-02-15T18:35:18;10.40;1.00
23143;DHT22;11740;51.168;4.112;2023-02-15T18:37:47;10.40;1.00
23143;DHT22;11740;51.168;4.112;2023-02-15T18:40:18;10.40;1.00
23143;DHT22;11740;51.168;4.112;2023-02-15T18:42:46;10.30;1.00
23143;DHT22;11740;51.168;4.112;2023-02-15T18:45:21;10.30;1.00
23143;DHT22;11740;51.168;4.112;2023-02-15T18:47:54;10.20;1.00
23143;DHT22;11740;51.168;4.112;2023-02-15T18:50:21;10.10;1.00
23143;DHT22;11740;51.168;4.112;2023-02-15T18:52:48;10.00;1.00
23143;DHT22;11740;51.168;4.112;2023-02-15T18:55:21;10.00;1.00
23143;DHT22;11740;51.168;4.112;2023-02-15T18:57:50;10.00;1.00
23143;DHT22;11740;51.168;4.112;2023-02-15T19:00:25;10.00;1.00
23143;DHT22;11740;51.168;4.112;2023-02-15T19:02:59;9.90;1.00
23143;DHT22;11740;51.168;4.112;2023-02-15T19:05:27;9.80;4.00
23143;DHT22;11740;51.168;4.112;2023-02-15T19:07:56;9.80;23.90
23143;DHT22;11740;51.168;4.112;2023-02-15T19:10:23;9.80;31.20
23143;DHT22;11740;51.168;4.112;2023-02-15T19:12:52;9.70;27.90
23143;DHT22;11740;51.168;4.112;2023-02-15T19:15:21;9.60;84.00
23143;DHT22;11740;51.168;4.112;2023-02-15T19:17:50;9.50;99.90
23143;DHT22;11740;51.168;4.112;2023-02-15T19:20:22;9.50;87.90
23143;DHT22;11740;51.168;4.112;2023-02-15T19:22:54;9.40;99.90
23143;DHT22;11740;51.168;4.112;2023-02-15T19:25:23;9.40;99.90
23143;DHT22;11740;51.168;4.112;2023-02-15T19:27:51;9.30;99.90
23143;DHT22;11740;51.168;4.112;2023-02-15T19:30:27;9.20;99.90
23143;DHT22;11740;51.168;4.112;2023-02-15T19:32:56;9.20;99.90
23143;DHT22;11740;51.168;4.112;2023-02-15T19:35:24;9.20;99.90
23143;DHT22;11740;51.168;4.112;2023-02-15T19:37:53;9.10;99.90
23143;DHT22;11740;51.168;4.112;2023-02-15T19:40:22;9.10;99.90
23143;DHT22;11740;51.168;4.112;2023-02-15T19:42:51;9.10;99.90
23143;DHT22;11740;51.168;4.112;2023-02-15T19:45:19;9.00;99.90
23143;DHT22;11740;51.168;4.112;2023-02-15T19:47:48;9.00;99.90
23143;DHT22;11740;51.168;4.112;2023-02-15T19:50:16;8.90;99.90
23143;DHT22;11740;51.168;4.112;2023-02-15T19:52:50;8.90;99.90
23143;DHT22;11740;51.168;4.112;2023-02-15T19:55:24;8.90;99.90
23143;DHT22;11740;51.168;4.112;2023-02-15T19:57:59;8.90;99.90
23143;DHT22;11740;51.168;4.112;2023-02-15T20:00:30;8.90;99.90
23143;DHT22;11740;51.168;4.112;2023-02-15T20:02:58;8.90;99.90
23143;DHT22;11740;51.168;4.112;2023-02-15T20:05:27;8.80;99.90
23143;DHT22;11740;51.168;4.112;2023-02-15T20:07:55;8.70;99.90
23143;DHT22;11740;51.168;4.112;2023-02-15T20:10:23;8.70;99.90